Airfield :
LOGIN :

Register | Disclaimer

   EN    FR    IT 

 










Legend :    VFR   Marginal VFR   IFR   Intensive IFR   Very Intensive IFR
Visi :
Ceiling :
>= 8 km
>= 3000ft
5 to 8 km
1000 to 3000 ft
1500m to 5 km
500 to 1000 ft
800 to 1500m
200 to 500 ft
< 800m
< 200 ft
Symbols :   Thunderstorms  Fog  Heavy snow  Heavy precipitations  Wind > 20 kt
SIGMETs :     Misc.  Thunderstorms  Icing  Turbulence  Mountain Waves  Volcanic Ashes







- Airport Elevation : 978 ft
- IATA code : LNZ


LOWL - Linz

CURRENT METAR :
  • 221950Z AUTO 10006KT 6000 -SN SCT008 BKN060 M03/M04 Q1017 R08/690195 NOSIG

EXPIRED METARs :
  • 221920Z AUTO 09007KT 6000 -SN FEW006 SCT008 BKN090 M02/M04 Q1017 R08/690195 NOSIG
  • 221850Z AUTO 10007KT 060V120 5000 -SN BR FEW005 BKN012 M02/M04 Q1017 R08/690195 TEMPO FEW005 SCT012 BKN035
  • 221820Z AUTO 10006KT 4800 -SN SCT006 BKN036 M02/M04 Q1017 R08/690195 BECMG 5000 NSW
  • 221750Z AUTO 09008KT 4700 -SN BR SCT006 BKN020 M02/M03 Q1017 R08/29//95 BECMG 5000 NSW
  • 221720Z AUTO 09007KT 4900 -SN BR FEW004 SCT028 BKN090 M02/M04 Q1017 R08/29//95 BECMG 5000 NSW

TAF AMD TAF LOWL
Valid from the 22 at 18:00 until the 23 at 18:00 UTC


221850Z 2218/2318 10008KT 7000 FEW020 BKN030 TX02/2315Z TNM04/2305Z
TEMPO 2218/2224 3000 -SN FEW005 BKN012
TEMPO 2300/2308 09004KT 4000 BR
TEMPO 2310/2316 10016G26KT 9999 SCT035
No reported NOTAMs for that airfield.



MET'MAP, your aeronautical weather chart ! - Copyright ORBIFLY December 2007 - Disclaimer

ORBIFLY MET'MAP TEAM :

Programming & Development : Alexandra Zaïnal
Concept & Development : Baudouin d'Aumeries
Co-Development & Prog : Marc-Olivier Méhu
Technical & hardware support : Manuel Goepfert

Contact : metmap@orbifly.com




SOURCES & CREDITS :

   NOAA